sensor_id;sensor_type;location;lat;lon;timestamp;P1;durP1;ratioP1;P2;durP2;ratioP2
13588;SDS011;6865;52.552;13.434;2023-04-19T00:02:00;5.53;;;3.33;;
13588;SDS011;6865;52.552;13.434;2023-04-19T00:04:27;5.53;;;3.00;;
13588;SDS011;6865;52.552;13.434;2023-04-19T00:06:55;6.07;;;3.20;;
13588;SDS011;6865;52.552;13.434;2023-04-19T00:09:23;5.23;;;3.33;;
13588;SDS011;6865;52.552;13.434;2023-04-19T00:11:50;6.83;;;2.93;;
13588;SDS011;6865;52.552;13.434;2023-04-19T00:14:17;5.67;;;3.07;;
13588;SDS011;6865;52.552;13.434;2023-04-19T00:16:44;7.23;;;2.83;;
13588;SDS011;6865;52.552;13.434;2023-04-19T00:19:10;3.37;;;2.80;;
13588;SDS011;6865;52.552;13.434;2023-04-19T00:21:37;5.97;;;3.17;;
13588;SDS011;6865;52.552;13.434;2023-04-19T00:24:04;4.13;;;2.57;;
13588;SDS011;6865;52.552;13.434;2023-04-19T00:26:30;7.10;;;3.20;;
13588;SDS011;6865;52.552;13.434;2023-04-19T00:28:57;4.20;;;2.90;;
13588;SDS011;6865;52.552;13.434;2023-04-19T00:31:24;5.40;;;2.70;;
13588;SDS011;6865;52.552;13.434;2023-04-19T00:33:50;4.23;;;2.50;;
13588;SDS011;6865;52.552;13.434;2023-04-19T00:36:17;5.80;;;2.70;;
13588;SDS011;6865;52.552;13.434;2023-04-19T00:38:44;3.77;;;2.90;;
13588;SDS011;6865;52.552;13.434;2023-04-19T00:41:10;5.13;;;2.90;;
13588;SDS011;6865;52.552;13.434;2023-04-19T00:43:37;5.60;;;2.90;;
13588;SDS011;6865;52.552;13.434;2023-04-19T00:46:04;4.03;;;2.57;;
13588;SDS011;6865;52.552;13.434;2023-04-19T00:48:31;6.80;;;2.83;;
13588;SDS011;6865;52.552;13.434;2023-04-19T00:51:01;6.93;;;2.83;;
13588;SDS011;6865;52.552;13.434;2023-04-19T00:53:28;5.77;;;2.67;;
13588;SDS011;6865;52.552;13.434;2023-04-19T00:55:55;6.70;;;2.67;;
13588;SDS011;6865;52.552;13.434;2023-04-19T00:58:24;7.50;;;3.70;;
13588;SDS011;6865;52.552;13.434;2023-04-19T01:00:53;5.90;;;2.73;;
13588;SDS011;6865;52.552;13.434;2023-04-19T01:03:20;3.87;;;2.63;;
13588;SDS011;6865;52.552;13.434;2023-04-19T01:05:47;4.93;;;2.70;;
13588;SDS011;6865;52.552;13.434;2023-04-19T01:08:14;4.90;;;2.80;;
13588;SDS011;6865;52.552;13.434;2023-04-19T01:10:40;4.30;;;2.70;;
13588;SDS011;6865;52.552;13.434;2023-04-19T01:13:07;5.57;;;2.70;;
13588;SDS011;6865;52.552;13.434;2023-04-19T01:15:34;5.27;;;3.03;;
13588;SDS011;6865;52.552;13.434;2023-04-19T01:18:01;4.30;;;2.90;;
13588;SDS011;6865;52.552;13.434;2023-04-19T01:20:28;5.40;;;2.57;;
13588;SDS011;6865;52.552;13.434;2023-04-19T01:22:54;3.63;;;2.50;;
13588;SDS011;6865;52.552;13.434;2023-04-19T01:25:21;4.80;;;2.80;;
13588;SDS011;6865;52.552;13.434;2023-04-19T01:27:48;3.67;;;2.67;;
13588;SDS011;6865;52.552;13.434;2023-04-19T01:30:14;8.10;;;2.80;;
13588;SDS011;6865;52.552;13.434;2023-04-19T01:32:41;6.00;;;2.60;;
13588;SDS011;6865;52.552;13.434;2023-04-19T01:35:08;3.17;;;2.40;;
13588;SDS011;6865;52.552;13.434;2023-04-19T01:37:36;4.77;;;2.40;;
13588;SDS011;6865;52.552;13.434;2023-04-19T01:40:03;6.23;;;2.73;;
13588;SDS011;6865;52.552;13.434;2023-04-19T01:42:30;6.80;;;2.57;;
13588;SDS011;6865;52.552;13.434;2023-04-19T01:44:57;6.03;;;2.87;;
13588;SDS011;6865;52.552;13.434;2023-04-19T01:47:24;4.73;;;2.90;;
13588;SDS011;6865;52.552;13.434;2023-04-19T01:49:51;5.80;;;2.73;;
13588;SDS011;6865;52.552;13.434;2023-04-19T01:52:17;6.13;;;2.83;;
13588;SDS011;6865;52.552;13.434;2023-04-19T01:54:44;4.00;;;2.60;;
13588;SDS011;6865;52.552;13.434;2023-04-19T01:57:10;4.07;;;2.37;;
13588;SDS011;6865;52.552;13.434;2023-04-19T01:59:37;6.63;;;2.63;;
13588;SDS011;6865;52.552;13.434;2023-04-19T02:02:06;3.70;;;2.87;;
13588;SDS011;6865;52.552;13.434;2023-04-19T02:04:34;3.83;;;2.60;;
13588;SDS011;6865;52.552;13.434;2023-04-19T02:07:01;7.70;;;3.53;;
13588;SDS011;6865;52.552;13.434;2023-04-19T02:09:27;4.77;;;2.70;;
13588;SDS011;6865;52.552;13.434;2023-04-19T02:11:54;2.70;;;2.30;;
13588;SDS011;6865;52.552;13.434;2023-04-19T02:14:20;5.47;;;2.90;;
13588;SDS011;6865;52.552;13.434;2023-04-19T02:16:47;5.60;;;2.50;;
13588;SDS011;6865;52.552;13.434;2023-04-19T02:19:14;6.20;;;2.87;;
13588;SDS011;6865;52.552;13.434;2023-04-19T02:21:40;6.30;;;2.70;;
13588;SDS011;6865;52.552;13.434;2023-04-19T02:24:07;4.60;;;2.63;;
13588;SDS011;6865;52.552;13.434;2023-04-19T02:26:33;5.03;;;2.30;;
13588;SDS011;6865;52.552;13.434;2023-04-19T02:29:00;4.97;;;2.70;;
13588;SDS011;6865;52.552;13.434;2023-04-19T02:31:27;3.87;;;2.40;;
13588;SDS011;6865;52.552;13.434;2023-04-19T02:33:53;4.73;;;2.67;;
13588;SDS011;6865;52.552;13.434;2023-04-19T02:36:20;4.67;;;2.30;;
13588;SDS011;6865;52.552;13.434;2023-04-19T02:38:47;4.97;;;2.57;;
13588;SDS011;6865;52.552;13.434;2023-04-19T02:41:13;5.17;;;2.80;;
13588;SDS011;6865;52.552;13.434;2023-04-19T02:43:40;5.83;;;2.40;;
13588;SDS011;6865;52.552;13.434;2023-04-19T02:46:07;6.77;;;2.60;;
13588;SDS011;6865;52.552;13.434;2023-04-19T02:48:35;3.63;;;2.33;;
13588;SDS011;6865;52.552;13.434;2023-04-19T02:51:02;5.13;;;2.40;;
13588;SDS011;6865;52.552;13.434;2023-04-19T02:53:28;4.70;;;2.50;;
13588;SDS011;6865;52.552;13.434;2023-04-19T02:55:55;3.90;;;2.40;;
13588;SDS011;6865;52.552;13.434;2023-04-19T02:58:21;4.43;;;2.50;;
13588;SDS011;6865;52.552;13.434;2023-04-19T03:00:48;3.93;;;2.40;;
13588;SDS011;6865;52.552;13.434;2023-04-19T03:03:15;3.33;;;2.30;;
13588;SDS011;6865;52.552;13.434;2023-04-19T03:05:41;4.10;;;2.37;;
13588;SDS011;6865;52.552;13.434;2023-04-19T03:08:08;3.40;;;2.07;;
13588;SDS011;6865;52.552;13.434;2023-04-19T03:10:36;4.03;;;2.47;;
13588;SDS011;6865;52.552;13.434;2023-04-19T03:13:02;3.90;;;2.03;;
13588;SDS011;6865;52.552;13.434;2023-04-19T03:15:29;4.87;;;2.30;;
13588;SDS011;6865;52.552;13.434;2023-04-19T03:17:56;4.50;;;2.40;;
13588;SDS011;6865;52.552;13.434;2023-04-19T03:20:23;3.80;;;2.20;;
13588;SDS011;6865;52.552;13.434;2023-04-19T03:22:49;2.70;;;2.10;;
13588;SDS011;6865;52.552;13.434;2023-04-19T03:25:16;3.27;;;2.40;;
13588;SDS011;6865;52.552;13.434;2023-04-19T03:27:43;3.77;;;2.30;;
13588;SDS011;6865;52.552;13.434;2023-04-19T03:30:11;3.37;;;2.33;;
13588;SDS011;6865;52.552;13.434;2023-04-19T03:32:38;3.73;;;2.37;;
13588;SDS011;6865;52.552;13.434;2023-04-19T03:35:04;4.73;;;2.13;;
13588;SDS011;6865;52.552;13.434;2023-04-19T03:37:31;3.50;;;2.57;;
13588;SDS011;6865;52.552;13.434;2023-04-19T03:39:58;5.80;;;2.33;;
13588;SDS011;6865;52.552;13.434;2023-04-19T03:42:24;4.07;;;2.20;;
13588;SDS011;6865;52.552;13.434;2023-04-19T03:44:54;3.97;;;1.97;;
13588;SDS011;6865;52.552;13.434;2023-04-19T03:47:20;3.70;;;2.07;;
13588;SDS011;6865;52.552;13.434;2023-04-19T03:49:47;3.83;;;2.00;;
13588;SDS011;6865;52.552;13.434;2023-04-19T03:52:14;6.17;;;3.03;;
13588;SDS011;6865;52.552;13.434;2023-04-19T03:54:40;7.97;;;2.60;;
13588;SDS011;6865;52.552;13.434;2023-04-19T03:57:07;4.10;;;2.20;;
13588;SDS011;6865;52.552;13.434;2023-04-19T03:59:34;4.40;;;2.30;;
13588;SDS011;6865;52.552;13.434;2023-04-19T04:02:00;5.87;;;2.47;;
13588;SDS011;6865;52.552;13.434;2023-04-19T04:04:27;3.73;;;2.40;;
13588;SDS011;6865;52.552;13.434;2023-04-19T04:06:54;3.70;;;2.13;;
13588;SDS011;6865;52.552;13.434;2023-04-19T04:09:21;2.87;;;2.17;;
13588;SDS011;6865;52.552;13.434;2023-04-19T04:11:47;3.90;;;2.20;;
13588;SDS011;6865;52.552;13.434;2023-04-19T04:14:14;4.67;;;2.40;;
13588;SDS011;6865;52.552;13.434;2023-04-19T04:16:41;4.07;;;2.23;;
13588;SDS011;6865;52.552;13.434;2023-04-19T04:19:08;5.20;;;2.50;;
13588;SDS011;6865;52.552;13.434;2023-04-19T04:21:34;3.80;;;2.37;;
13588;SDS011;6865;52.552;13.434;2023-04-19T04:24:01;4.97;;;2.30;;
13588;SDS011;6865;52.552;13.434;2023-04-19T04:26:28;3.27;;;2.20;;
13588;SDS011;6865;52.552;13.434;2023-04-19T04:28:56;4.20;;;2.20;;
13588;SDS011;6865;52.552;13.434;2023-04-19T04:31:22;6.63;;;2.47;;
13588;SDS011;6865;52.552;13.434;2023-04-19T04:33:49;5.13;;;2.60;;
13588;SDS011;6865;52.552;13.434;2023-04-19T04:36:16;4.20;;;2.60;;
13588;SDS011;6865;52.552;13.434;2023-04-19T04:38:43;3.13;;;2.23;;
13588;SDS011;6865;52.552;13.434;2023-04-19T04:41:09;6.57;;;2.97;;
13588;SDS011;6865;52.552;13.434;2023-04-19T04:43:37;4.77;;;2.50;;
13588;SDS011;6865;52.552;13.434;2023-04-19T04:46:04;3.10;;;2.07;;
13588;SDS011;6865;52.552;13.434;2023-04-19T04:48:31;3.87;;;2.13;;
13588;SDS011;6865;52.552;13.434;2023-04-19T04:50:58;5.00;;;2.50;;
13588;SDS011;6865;52.552;13.434;2023-04-19T04:53:25;6.20;;;2.70;;
13588;SDS011;6865;52.552;13.434;2023-04-19T04:55:55;4.67;;;2.50;;
13588;SDS011;6865;52.552;13.434;2023-04-19T04:58:21;5.00;;;3.23;;
13588;SDS011;6865;52.552;13.434;2023-04-19T05:00:48;8.10;;;2.83;;
13588;SDS011;6865;52.552;13.434;2023-04-19T05:03:15;5.60;;;2.30;;
13588;SDS011;6865;52.552;13.434;2023-04-19T05:05:41;5.47;;;2.53;;
13588;SDS011;6865;52.552;13.434;2023-04-19T05:08:10;3.53;;;2.43;;
13588;SDS011;6865;52.552;13.434;2023-04-19T05:10:37;6.57;;;2.50;;
13588;SDS011;6865;52.552;13.434;2023-04-19T05:13:03;6.10;;;2.60;;
13588;SDS011;6865;52.552;13.434;2023-04-19T05:15:30;6.23;;;2.60;;
13588;SDS011;6865;52.552;13.434;2023-04-19T05:17:57;4.13;;;2.30;;
13588;SDS011;6865;52.552;13.434;2023-04-19T05:20:23;6.13;;;2.40;;
13588;SDS011;6865;52.552;13.434;2023-04-19T05:22:55;8.80;;;2.83;;
13588;SDS011;6865;52.552;13.434;2023-04-19T05:25:23;8.57;;;2.97;;
13588;SDS011;6865;52.552;13.434;2023-04-19T05:27:50;3.93;;;2.37;;
13588;SDS011;6865;52.552;13.434;2023-04-19T05:30:16;7.17;;;2.37;;
13588;SDS011;6865;52.552;13.434;2023-04-19T05:32:43;5.33;;;2.30;;
13588;SDS011;6865;52.552;13.434;2023-04-19T05:35:10;7.33;;;2.47;;
13588;SDS011;6865;52.552;13.434;2023-04-19T05:37:37;3.03;;;2.20;;
13588;SDS011;6865;52.552;13.434;2023-04-19T05:40:04;4.50;;;2.43;;
13588;SDS011;6865;52.552;13.434;2023-04-19T05:42:35;5.90;;;2.30;;
13588;SDS011;6865;52.552;13.434;2023-04-19T05:45:01;4.77;;;2.13;;
13588;SDS011;6865;52.552;13.434;2023-04-19T05:47:31;3.53;;;1.80;;
13588;SDS011;6865;52.552;13.434;2023-04-19T05:49:58;4.67;;;2.10;;
13588;SDS011;6865;52.552;13.434;2023-04-19T05:52:24;5.83;;;2.10;;
13588;SDS011;6865;52.552;13.434;2023-04-19T05:54:51;4.43;;;2.10;;
13588;SDS011;6865;52.552;13.434;2023-04-19T05:57:17;7.37;;;2.00;;
13588;SDS011;6865;52.552;13.434;2023-04-19T05:59:44;5.50;;;2.07;;
13588;SDS011;6865;52.552;13.434;2023-04-19T06:02:11;5.03;;;2.10;;
13588;SDS011;6865;52.552;13.434;2023-04-19T06:04:37;4.80;;;1.90;;
13588;SDS011;6865;52.552;13.434;2023-04-19T06:07:05;3.87;;;2.10;;
13588;SDS011;6865;52.552;13.434;2023-04-19T06:09:47;2.73;;;1.83;;
13588;SDS011;6865;52.552;13.434;2023-04-19T06:12:13;5.03;;;2.00;;
13588;SDS011;6865;52.552;13.434;2023-04-19T06:14:40;4.83;;;2.27;;
13588;SDS011;6865;52.552;13.434;2023-04-19T06:17:07;5.93;;;3.03;;
13588;SDS011;6865;52.552;13.434;2023-04-19T06:19:37;6.83;;;2.47;;
13588;SDS011;6865;52.552;13.434;2023-04-19T06:22:04;5.27;;;2.00;;
13588;SDS011;6865;52.552;13.434;2023-04-19T06:24:31;3.60;;;1.87;;
13588;SDS011;6865;52.552;13.434;2023-04-19T06:27:00;4.33;;;2.20;;
13588;SDS011;6865;52.552;13.434;2023-04-19T06:29:27;3.97;;;1.90;;
13588;SDS011;6865;52.552;13.434;2023-04-19T06:31:54;4.43;;;2.13;;
13588;SDS011;6865;52.552;13.434;2023-04-19T06:34:21;5.43;;;2.10;;
13588;SDS011;6865;52.552;13.434;2023-04-19T06:36:47;3.80;;;2.00;;
13588;SDS011;6865;52.552;13.434;2023-04-19T06:39:14;3.80;;;2.17;;
13588;SDS011;6865;52.552;13.434;2023-04-19T06:41:40;6.10;;;2.20;;
13588;SDS011;6865;52.552;13.434;2023-04-19T06:44:07;5.20;;;1.90;;
13588;SDS011;6865;52.552;13.434;2023-04-19T06:46:34;5.80;;;2.00;;
13588;SDS011;6865;52.552;13.434;2023-04-19T06:49:00;6.43;;;2.00;;
13588;SDS011;6865;52.552;13.434;2023-04-19T06:51:27;8.70;;;2.00;;
13588;SDS011;6865;52.552;13.434;2023-04-19T06:53:54;5.10;;;1.87;;
13588;SDS011;6865;52.552;13.434;2023-04-19T06:59:15;5.87;;;2.43;;
13588;SDS011;6865;52.552;13.434;2023-04-19T07:01:44;9.73;;;2.00;;
13588;SDS011;6865;52.552;13.434;2023-04-19T07:04:11;5.23;;;2.00;;
13588;SDS011;6865;52.552;13.434;2023-04-19T07:06:38;8.97;;;2.10;;
13588;SDS011;6865;52.552;13.434;2023-04-19T07:09:06;4.43;;;1.70;;
13588;SDS011;6865;52.552;13.434;2023-04-19T07:11:33;4.33;;;1.90;;
13588;SDS011;6865;52.552;13.434;2023-04-19T07:14:00;5.67;;;2.20;;
13588;SDS011;6865;52.552;13.434;2023-04-19T07:16:27;4.23;;;2.03;;
13588;SDS011;6865;52.552;13.434;2023-04-19T07:18:54;7.17;;;2.60;;
13588;SDS011;6865;52.552;13.434;2023-04-19T07:21:21;4.13;;;1.93;;
13588;SDS011;6865;52.552;13.434;2023-04-19T07:23:50;4.80;;;1.70;;
13588;SDS011;6865;52.552;13.434;2023-04-19T07:26:16;3.57;;;1.80;;
13588;SDS011;6865;52.552;13.434;2023-04-19T07:28:43;2.63;;;1.70;;
13588;SDS011;6865;52.552;13.434;2023-04-19T07:31:13;8.10;;;2.30;;
13588;SDS011;6865;52.552;13.434;2023-04-19T07:33:41;4.20;;;1.70;;
13588;SDS011;6865;52.552;13.434;2023-04-19T07:36:09;2.47;;;1.77;;
13588;SDS011;6865;52.552;13.434;2023-04-19T07:38:36;4.50;;;1.87;;
13588;SDS011;6865;52.552;13.434;2023-04-19T07:41:02;4.07;;;2.03;;
13588;SDS011;6865;52.552;13.434;2023-04-19T07:43:30;6.40;;;2.13;;
13588;SDS011;6865;52.552;13.434;2023-04-19T07:45:57;3.97;;;1.70;;
13588;SDS011;6865;52.552;13.434;2023-04-19T07:48:23;4.53;;;2.10;;
13588;SDS011;6865;52.552;13.434;2023-04-19T07:50:50;4.47;;;2.03;;
13588;SDS011;6865;52.552;13.434;2023-04-19T07:53:17;3.77;;;2.00;;
13588;SDS011;6865;52.552;13.434;2023-04-19T07:55:43;4.87;;;2.30;;
13588;SDS011;6865;52.552;13.434;2023-04-19T07:58:10;4.57;;;1.70;;
13588;SDS011;6865;52.552;13.434;2023-04-19T08:00:37;3.80;;;2.00;;
13588;SDS011;6865;52.552;13.434;2023-04-19T08:03:03;5.90;;;1.90;;
13588;SDS011;6865;52.552;13.434;2023-04-19T08:05:31;4.33;;;2.20;;
13588;SDS011;6865;52.552;13.434;2023-04-19T08:07:58;3.93;;;2.07;;
13588;SDS011;6865;52.552;13.434;2023-04-19T08:10:24;2.67;;;1.93;;
13588;SDS011;6865;52.552;13.434;2023-04-19T08:12:53;5.37;;;2.10;;
13588;SDS011;6865;52.552;13.434;2023-04-19T08:15:34;4.13;;;2.40;;
13588;SDS011;6865;52.552;13.434;2023-04-19T08:18:04;4.10;;;2.10;;
13588;SDS011;6865;52.552;13.434;2023-04-19T08:20:31;7.77;;;2.63;;
13588;SDS011;6865;52.552;13.434;2023-04-19T08:22:58;3.57;;;2.10;;
13588;SDS011;6865;52.552;13.434;2023-04-19T08:25:39;6.10;;;2.13;;
13588;SDS011;6865;52.552;13.434;2023-04-19T08:28:06;7.43;;;2.40;;
13588;SDS011;6865;52.552;13.434;2023-04-19T08:30:32;4.20;;;2.43;;
13588;SDS011;6865;52.552;13.434;2023-04-19T08:32:59;5.50;;;2.50;;
13588;SDS011;6865;52.552;13.434;2023-04-19T08:35:26;5.53;;;2.27;;
13588;SDS011;6865;52.552;13.434;2023-04-19T08:37:53;5.17;;;2.40;;
13588;SDS011;6865;52.552;13.434;2023-04-19T08:40:20;3.93;;;2.43;;
13588;SDS011;6865;52.552;13.434;2023-04-19T08:42:47;6.00;;;2.37;;
13588;SDS011;6865;52.552;13.434;2023-04-19T08:45:15;11.83;;;3.00;;
13588;SDS011;6865;52.552;13.434;2023-04-19T08:47:53;3.67;;;2.23;;
13588;SDS011;6865;52.552;13.434;2023-04-19T08:50:27;6.67;;;2.83;;
13588;SDS011;6865;52.552;13.434;2023-04-19T08:52:58;6.07;;;2.80;;
13588;SDS011;6865;52.552;13.434;2023-04-19T08:55:41;5.57;;;2.60;;
13588;SDS011;6865;52.552;13.434;2023-04-19T08:58:28;5.23;;;2.60;;
13588;SDS011;6865;52.552;13.434;2023-04-19T09:01:17;6.80;;;2.87;;
13588;SDS011;6865;52.552;13.434;2023-04-19T09:03:59;4.93;;;2.43;;
13588;SDS011;6865;52.552;13.434;2023-04-19T09:06:46;7.17;;;2.60;;
13588;SDS011;6865;52.552;13.434;2023-04-19T09:09:17;7.47;;;2.43;;
13588;SDS011;6865;52.552;13.434;2023-04-19T09:11:46;13.27;;;2.97;;
13588;SDS011;6865;52.552;13.434;2023-04-19T09:14:14;8.10;;;2.70;;
13588;SDS011;6865;52.552;13.434;2023-04-19T09:16:42;3.27;;;2.47;;
13588;SDS011;6865;52.552;13.434;2023-04-19T09:19:10;3.83;;;2.50;;
13588;SDS011;6865;52.552;13.434;2023-04-19T09:21:49;5.67;;;2.40;;
13588;SDS011;6865;52.552;13.434;2023-04-19T09:24:17;6.53;;;2.87;;
13588;SDS011;6865;52.552;13.434;2023-04-19T09:26:52;4.77;;;2.50;;
13588;SDS011;6865;52.552;13.434;2023-04-19T09:29:20;4.83;;;2.23;;
13588;SDS011;6865;52.552;13.434;2023-04-19T09:31:55;5.73;;;2.80;;
13588;SDS011;6865;52.552;13.434;2023-04-19T09:34:24;5.43;;;2.47;;
13588;SDS011;6865;52.552;13.434;2023-04-19T09:36:57;5.70;;;2.37;;
13588;SDS011;6865;52.552;13.434;2023-04-19T09:39:52;6.87;;;2.47;;
13588;SDS011;6865;52.552;13.434;2023-04-19T09:42:19;6.47;;;2.80;;
13588;SDS011;6865;52.552;13.434;2023-04-19T09:45:07;6.27;;;2.63;;
13588;SDS011;6865;52.552;13.434;2023-04-19T09:47:37;5.23;;;3.00;;
13588;SDS011;6865;52.552;13.434;2023-04-19T09:50:10;4.40;;;2.63;;
13588;SDS011;6865;52.552;13.434;2023-04-19T09:52:49;4.37;;;2.70;;
13588;SDS011;6865;52.552;13.434;2023-04-19T09:55:17;5.87;;;2.53;;
13588;SDS011;6865;52.552;13.434;2023-04-19T09:57:47;4.53;;;2.70;;
13588;SDS011;6865;52.552;13.434;2023-04-19T10:00:14;4.57;;;2.30;;
13588;SDS011;6865;52.552;13.434;2023-04-19T10:02:41;7.33;;;2.57;;
13588;SDS011;6865;52.552;13.434;2023-04-19T10:05:10;4.70;;;2.60;;
13588;SDS011;6865;52.552;13.434;2023-04-19T10:07:48;7.13;;;2.97;;
13588;SDS011;6865;52.552;13.434;2023-04-19T10:10:16;5.90;;;2.73;;
13588;SDS011;6865;52.552;13.434;2023-04-19T10:12:47;3.87;;;2.30;;
13588;SDS011;6865;52.552;13.434;2023-04-19T10:15:36;4.37;;;2.60;;
13588;SDS011;6865;52.552;13.434;2023-04-19T10:18:06;7.93;;;2.63;;
13588;SDS011;6865;52.552;13.434;2023-04-19T10:20:50;4.93;;;2.70;;
13588;SDS011;6865;52.552;13.434;2023-04-19T10:23:22;5.00;;;2.53;;
13588;SDS011;6865;52.552;13.434;2023-04-19T10:25:53;5.27;;;2.40;;
13588;SDS011;6865;52.552;13.434;2023-04-19T10:28:21;3.80;;;2.30;;
13588;SDS011;6865;52.552;13.434;2023-04-19T10:31:22;5.47;;;2.50;;
13588;SDS011;6865;52.552;13.434;2023-04-19T10:33:44;6.17;;;2.80;;
13588;SDS011;6865;52.552;13.434;2023-04-19T10:36:13;6.40;;;3.30;;
13588;SDS011;6865;52.552;13.434;2023-04-19T10:38:44;7.07;;;3.10;;
13588;SDS011;6865;52.552;13.434;2023-04-19T10:41:15;6.80;;;2.90;;
13588;SDS011;6865;52.552;13.434;2023-04-19T10:48:57;6.27;;;2.80;;
13588;SDS011;6865;52.552;13.434;2023-04-19T10:51:26;5.80;;;2.93;;
13588;SDS011;6865;52.552;13.434;2023-04-19T10:53:59;5.27;;;2.97;;
13588;SDS011;6865;52.552;13.434;2023-04-19T11:01:33;6.13;;;2.60;;
13588;SDS011;6865;52.552;13.434;2023-04-19T11:04:06;3.87;;;2.57;;
13588;SDS011;6865;52.552;13.434;2023-04-19T11:06:34;7.20;;;2.97;;
13588;SDS011;6865;52.552;13.434;2023-04-19T11:09:02;9.10;;;2.90;;
13588;SDS011;6865;52.552;13.434;2023-04-19T11:11:34;6.67;;;3.13;;
13588;SDS011;6865;52.552;13.434;2023-04-19T11:14:01;5.30;;;2.80;;
13588;SDS011;6865;52.552;13.434;2023-04-19T11:16:29;8.37;;;2.83;;
13588;SDS011;6865;52.552;13.434;2023-04-19T11:19:20;7.60;;;3.20;;
13588;SDS011;6865;52.552;13.434;2023-04-19T11:21:47;7.70;;;2.90;;
13588;SDS011;6865;52.552;13.434;2023-04-19T11:24:14;5.40;;;2.70;;
13588;SDS011;6865;52.552;13.434;2023-04-19T11:26:44;6.73;;;2.70;;
13588;SDS011;6865;52.552;13.434;2023-04-19T11:29:11;5.80;;;2.80;;
13588;SDS011;6865;52.552;13.434;2023-04-19T11:31:38;5.50;;;2.73;;
13588;SDS011;6865;52.552;13.434;2023-04-19T11:34:06;7.23;;;2.70;;
13588;SDS011;6865;52.552;13.434;2023-04-19T11:36:32;6.00;;;3.30;;
13588;SDS011;6865;52.552;13.434;2023-04-19T11:39:05;6.30;;;2.93;;
13588;SDS011;6865;52.552;13.434;2023-04-19T11:41:38;7.03;;;2.90;;
13588;SDS011;6865;52.552;13.434;2023-04-19T11:44:17;6.00;;;3.10;;
13588;SDS011;6865;52.552;13.434;2023-04-19T11:46:57;5.03;;;2.50;;
13588;SDS011;6865;52.552;13.434;2023-04-19T11:49:28;4.60;;;2.53;;
13588;SDS011;6865;52.552;13.434;2023-04-19T11:51:57;7.40;;;3.27;;
13588;SDS011;6865;52.552;13.434;2023-04-19T11:54:26;4.00;;;2.60;;
13588;SDS011;6865;52.552;13.434;2023-04-19T11:57:03;5.60;;;3.03;;
13588;SDS011;6865;52.552;13.434;2023-04-19T11:59:32;6.10;;;3.40;;
13588;SDS011;6865;52.552;13.434;2023-04-19T12:04:36;7.07;;;2.70;;
13588;SDS011;6865;52.552;13.434;2023-04-19T12:07:04;5.30;;;2.87;;
13588;SDS011;6865;52.552;13.434;2023-04-19T12:09:32;4.77;;;2.43;;
13588;SDS011;6865;52.552;13.434;2023-04-19T12:12:00;4.83;;;2.73;;
13588;SDS011;6865;52.552;13.434;2023-04-19T12:14:28;5.47;;;3.53;;
13588;SDS011;6865;52.552;13.434;2023-04-19T12:17:09;5.97;;;3.90;;
13588;SDS011;6865;52.552;13.434;2023-04-19T12:19:41;7.10;;;3.17;;
13588;SDS011;6865;52.552;13.434;2023-04-19T12:22:10;6.60;;;3.40;;
13588;SDS011;6865;52.552;13.434;2023-04-19T12:24:41;7.37;;;3.20;;
13588;SDS011;6865;52.552;13.434;2023-04-19T12:27:08;5.43;;;3.23;;
13588;SDS011;6865;52.552;13.434;2023-04-19T12:29:36;6.80;;;3.00;;
13588;SDS011;6865;52.552;13.434;2023-04-19T12:32:04;6.73;;;3.10;;
13588;SDS011;6865;52.552;13.434;2023-04-19T12:34:31;6.00;;;3.20;;
13588;SDS011;6865;52.552;13.434;2023-04-19T12:36:58;6.00;;;3.37;;
13588;SDS011;6865;52.552;13.434;2023-04-19T12:39:25;5.03;;;3.07;;
13588;SDS011;6865;52.552;13.434;2023-04-19T12:41:52;9.87;;;3.30;;
13588;SDS011;6865;52.552;13.434;2023-04-19T12:44:19;7.30;;;3.53;;
13588;SDS011;6865;52.552;13.434;2023-04-19T12:46:45;6.53;;;3.20;;
13588;SDS011;6865;52.552;13.434;2023-04-19T12:49:12;7.33;;;4.00;;
13588;SDS011;6865;52.552;13.434;2023-04-19T12:51:39;9.93;;;3.40;;
13588;SDS011;6865;52.552;13.434;2023-04-19T12:54:07;9.33;;;4.10;;
13588;SDS011;6865;52.552;13.434;2023-04-19T12:56:34;6.57;;;3.20;;
13588;SDS011;6865;52.552;13.434;2023-04-19T12:59:01;5.10;;;3.20;;
13588;SDS011;6865;52.552;13.434;2023-04-19T13:01:27;8.73;;;3.37;;
13588;SDS011;6865;52.552;13.434;2023-04-19T13:03:54;8.70;;;3.57;;
13588;SDS011;6865;52.552;13.434;2023-04-19T13:06:24;7.27;;;4.33;;
13588;SDS011;6865;52.552;13.434;2023-04-19T13:08:52;6.37;;;3.73;;
13588;SDS011;6865;52.552;13.434;2023-04-19T13:11:20;7.80;;;3.13;;
13588;SDS011;6865;52.552;13.434;2023-04-19T13:13:49;7.07;;;3.20;;
13588;SDS011;6865;52.552;13.434;2023-04-19T13:16:16;7.03;;;3.30;;
13588;SDS011;6865;52.552;13.434;2023-04-19T13:18:43;6.97;;;3.20;;
13588;SDS011;6865;52.552;13.434;2023-04-19T13:21:10;7.87;;;3.20;;
13588;SDS011;6865;52.552;13.434;2023-04-19T13:23:39;8.13;;;3.30;;
13588;SDS011;6865;52.552;13.434;2023-04-19T13:26:07;4.17;;;2.90;;
13588;SDS011;6865;52.552;13.434;2023-04-19T13:28:34;8.13;;;3.03;;
13588;SDS011;6865;52.552;13.434;2023-04-19T13:31:01;5.97;;;2.93;;
13588;SDS011;6865;52.552;13.434;2023-04-19T13:33:31;4.80;;;2.90;;
13588;SDS011;6865;52.552;13.434;2023-04-19T13:35:58;6.87;;;3.40;;
13588;SDS011;6865;52.552;13.434;2023-04-19T13:38:25;6.10;;;3.00;;
13588;SDS011;6865;52.552;13.434;2023-04-19T13:40:51;7.90;;;3.13;;
13588;SDS011;6865;52.552;13.434;2023-04-19T13:43:18;5.90;;;3.30;;
13588;SDS011;6865;52.552;13.434;2023-04-19T13:45:45;8.03;;;3.10;;
13588;SDS011;6865;52.552;13.434;2023-04-19T13:48:11;9.23;;;3.40;;
13588;SDS011;6865;52.552;13.434;2023-04-19T13:50:38;5.47;;;2.87;;
13588;SDS011;6865;52.552;13.434;2023-04-19T13:53:04;5.03;;;2.63;;
13588;SDS011;6865;52.552;13.434;2023-04-19T13:55:31;7.47;;;3.17;;
13588;SDS011;6865;52.552;13.434;2023-04-19T13:57:58;10.47;;;3.33;;
13588;SDS011;6865;52.552;13.434;2023-04-19T14:00:25;5.73;;;2.80;;
13588;SDS011;6865;52.552;13.434;2023-04-19T14:02:53;4.60;;;3.10;;
13588;SDS011;6865;52.552;13.434;2023-04-19T14:05:23;5.97;;;3.10;;
13588;SDS011;6865;52.552;13.434;2023-04-19T14:07:50;4.33;;;2.80;;
13588;SDS011;6865;52.552;13.434;2023-04-19T14:10:17;5.67;;;3.37;;
13588;SDS011;6865;52.552;13.434;2023-04-19T14:12:45;5.37;;;3.03;;
13588;SDS011;6865;52.552;13.434;2023-04-19T14:15:12;6.43;;;3.77;;
13588;SDS011;6865;52.552;13.434;2023-04-19T14:17:38;6.30;;;3.97;;
13588;SDS011;6865;52.552;13.434;2023-04-19T14:20:05;6.20;;;3.33;;
13588;SDS011;6865;52.552;13.434;2023-04-19T14:22:33;7.80;;;3.53;;
13588;SDS011;6865;52.552;13.434;2023-04-19T14:25:01;9.37;;;3.50;;
13588;SDS011;6865;52.552;13.434;2023-04-19T14:27:29;6.73;;;3.30;;
13588;SDS011;6865;52.552;13.434;2023-04-19T14:29:55;7.90;;;3.70;;
13588;SDS011;6865;52.552;13.434;2023-04-19T14:32:22;6.07;;;3.57;;
13588;SDS011;6865;52.552;13.434;2023-04-19T14:34:53;5.40;;;3.50;;
13588;SDS011;6865;52.552;13.434;2023-04-19T14:37:21;6.43;;;3.37;;
13588;SDS011;6865;52.552;13.434;2023-04-19T14:39:50;8.00;;;3.37;;
13588;SDS011;6865;52.552;13.434;2023-04-19T14:42:17;9.70;;;4.07;;
13588;SDS011;6865;52.552;13.434;2023-04-19T14:44:49;9.73;;;4.33;;
13588;SDS011;6865;52.552;13.434;2023-04-19T14:47:16;7.90;;;3.73;;
13588;SDS011;6865;52.552;13.434;2023-04-19T14:49:43;6.83;;;4.10;;
13588;SDS011;6865;52.552;13.434;2023-04-19T14:52:10;9.00;;;3.90;;
13588;SDS011;6865;52.552;13.434;2023-04-19T14:54:36;10.80;;;4.77;;
13588;SDS011;6865;52.552;13.434;2023-04-19T14:57:03;7.43;;;3.60;;
13588;SDS011;6865;52.552;13.434;2023-04-19T14:59:30;6.57;;;3.90;;
13588;SDS011;6865;52.552;13.434;2023-04-19T15:01:56;7.27;;;4.33;;
13588;SDS011;6865;52.552;13.434;2023-04-19T15:04:23;9.73;;;4.50;;
13588;SDS011;6865;52.552;13.434;2023-04-19T15:06:50;11.00;;;4.70;;
13588;SDS011;6865;52.552;13.434;2023-04-19T15:09:20;8.60;;;4.67;;
13588;SDS011;6865;52.552;13.434;2023-04-19T15:11:47;8.20;;;3.93;;